Archival Weather

Chicago O'Hare International

Chicago, Illinois (KORD)

Report from: Wednesday, December 21, 2022 2:51 AM CST
Current time: Friday, June 21, 2024 1:53 AM CDT

Current weather – Weather history – Daily summaries
Weather forecast

Temperature-10.6°C (12.9°F)
Wind chill-15.7°C (3.8°F)
Dew point-15.0°C (5.0°F)
Winds 5 kts (2.6 m/s, 5.8 mph) North (360°)
Visibility10 mi. (16.1 km)
Clouds Few clouds 2,000 ft. (610 m)
Few clouds 25,000 ft. (7,620 m)
Altimeter30.47 in.Hg (1032 mB)
Relative humidity70 %
Density altitude-3,850 ft. (-1,174 m)
Sea-level pressure103.3 kPa (1033 mB, 30.51 in.Hg)
Remarks Automated weather observing station with precipitation discriminator
Pressure falling more quickly
Flight conditions Visual Meteorological Conditions
Raw dataKORD 210851Z 36005KT 10SM FEW020 FEW250 M11/M15 A3047 RMK AO2 SLP331 T11061150 58001
An error has occurred. This application may no longer respond until reloaded. Reload 🗙